Time;durP1;ratioP1;P1;durP2;ratioP2;P2;SDS_P1;SDS_P2;PMS_P1;PMS_P2;Temp;Humidity;BMP_temperature;BMP_pressure;BME280_temperature;BME280_humidity;BME280_pressure;Samples;Min_cycle;Max_cycle;Signal;HPM_P1;HPM_P2
2021/08/29 00:02:02;;;;;;;11.85;4.80;;;;;;;14.97;90.62;102388.38;5001331;28;20064;-66
2021/08/29 00:04:30;;;;;;;10.80;4.30;;;;;;;14.98;90.98;102384.75;4996156;28;20105;-65
2021/08/29 00:06:58;;;;;;;11.27;4.05;;;;;;;14.94;91.09;102375.88;4996158;28;20073;-65
2021/08/29 00:09:26;;;;;;;11.02;4.20;;;;;;;14.93;91.22;102379.47;4996098;28;20070;-66
2021/08/29 00:11:54;;;;;;;12.93;4.50;;;;;;;14.90;91.66;102388.50;4996101;28;20143;-67
2021/08/29 00:14:24;;;;;;;13.90;4.78;;;;;;;14.95;91.12;102388.41;4997589;28;20162;-66
2021/08/29 00:16:52;;;;;;;10.18;4.30;;;;;;;14.97;90.87;102386.56;4996283;28;20065;-66
2021/08/29 00:19:20;;;;;;;12.13;3.92;;;;;;;14.97;91.37;102383.00;4999923;28;20460;-65
2021/08/29 00:21:48;;;;;;;10.25;4.22;;;;;;;14.97;91.24;102383.88;4996801;28;20103;-65
2021/08/29 00:24:16;;;;;;;12.38;4.63;;;;;;;14.96;91.34;102370.47;5001452;28;20119;-69
2021/08/29 00:26:44;;;;;;;14.57;5.07;;;;;;;15.02;91.06;102378.38;4992661;28;20094;-67
2021/08/29 00:29:12;;;;;;;12.70;4.97;;;;;;;15.02;90.92;102373.00;4998209;28;20058;-65
2021/08/29 00:31:42;;;;;;;13.15;4.68;;;;;;;15.03;90.72;102372.06;4998620;28;20057;-66
2021/08/29 00:34:10;;;;;;;10.68;6.13;;;;;;;15.01;90.63;102374.78;4993776;28;20068;-65
2021/08/29 00:36:41;;;;;;;11.90;4.72;;;;;;;15.00;90.96;102382.88;4997264;28;20058;-66
2021/08/29 00:39:09;;;;;;;13.75;4.82;;;;;;;15.00;90.88;102377.50;4993441;28;20065;-66
2021/08/29 00:41:37;;;;;;;13.70;5.60;;;;;;;15.01;90.70;102382.84;4998055;28;20429;-65
2021/08/29 00:44:05;;;;;;;12.98;5.18;;;;;;;15.02;90.68;102381.94;4995752;28;20062;-66
2021/08/29 00:46:34;;;;;;;15.48;5.53;;;;;;;15.02;90.28;102386.44;4993731;28;20302;-66
2021/08/29 00:49:04;;;;;;;11.55;5.15;;;;;;;15.02;89.91;102378.38;4994442;28;20050;-67
2021/08/29 00:51:34;;;;;;;14.00;5.88;;;;;;;15.00;89.97;102378.41;4998360;28;20081;-66
2021/08/29 00:54:03;;;;;;;12.40;4.85;;;;;;;15.05;89.11;102375.59;4996320;28;20061;-65
2021/08/29 00:56:31;;;;;;;8.32;3.70;;;;;;;15.02;88.67;102379.25;4997565;28;20483;-66
2021/08/29 00:58:59;;;;;;;14.98;4.80;;;;;;;15.05;88.48;102370.22;4998167;28;20069;-65
2021/08/29 01:01:35;;;;;;;11.93;3.85;;;;;;;15.06;87.93;102374.66;4995406;28;20140;-67
2021/08/29 01:04:11;;;;;;;12.23;4.10;;;;;;;15.08;87.66;102380.88;4997740;28;20437;-66
2021/08/29 01:06:46;;;;;;;10.60;4.22;;;;;;;15.08;87.07;102373.69;4994797;28;20477;-67
2021/08/29 01:09:17;;;;;;;9.15;3.83;;;;;;;15.06;86.25;102377.34;4994251;28;20062;-67
2021/08/29 01:11:51;;;;;;;9.32;3.85;;;;;;;15.04;85.89;102369.34;4993737;28;20081;-66
2021/08/29 01:14:23;;;;;;;9.57;4.20;;;;;;;15.05;85.00;102365.75;4995213;28;20467;-65
2021/08/29 01:16:57;;;;;;;12.90;4.43;;;;;;;15.03;85.18;102369.38;4991325;28;20085;-66
2021/08/29 01:19:40;;;;;;;11.85;4.13;;;;;;;15.04;85.11;102365.78;4996835;28;20070;-66
2021/08/29 01:22:09;;;;;;;10.55;3.88;;;;;;;15.03;84.81;102369.38;4996168;28;20448;-66
2021/08/29 01:24:39;;;;;;;6.72;3.53;;;;;;;15.05;84.78;102365.75;4993549;28;20090;-67
2021/08/29 01:27:16;;;;;;;9.30;4.82;;;;;;;15.02;84.89;102367.63;4997947;28;20578;-69
2021/08/29 01:29:45;;;;;;;8.60;3.95;;;;;;;15.03;84.69;102364.00;4993406;28;20084;-68
2021/08/29 01:32:16;;;;;;;9.05;4.25;;;;;;;15.00;84.50;102364.97;4993564;28;20140;-69
2021/08/29 01:34:46;;;;;;;10.80;3.88;;;;;;;15.01;83.76;102360.47;4992198;28;20066;-69
2021/08/29 01:37:17;;;;;;;10.70;3.83;;;;;;;15.03;83.46;102364.00;4995737;28;20323;-67
2021/08/29 01:39:45;;;;;;;10.00;4.13;;;;;;;15.02;83.22;102364.94;4995529;28;20414;-67
2021/08/29 01:42:14;;;;;;;10.43;4.05;;;;;;;15.04;83.13;102360.41;4994257;28;20107;-66
2021/08/29 01:44:47;;;;;;;9.75;3.92;;;;;;;15.06;82.67;102364.78;4994542;28;20084;-65
2021/08/29 01:47:18;;;;;;;8.80;4.10;;;;;;;15.10;82.25;102362.91;4992794;28;20464;-66
2021/08/29 01:49:47;;;;;;;10.73;4.32;;;;;;;15.11;82.33;102367.38;4995100;28;20066;-66
2021/08/29 01:52:16;;;;;;;10.85;4.15;;;;;;;15.05;82.86;102364.81;4995244;28;20182;-66
2021/08/29 01:54:44;;;;;;;14.68;4.05;;;;;;;15.00;82.88;102373.03;4995847;28;20112;-66
2021/08/29 01:57:13;;;;;;;12.80;4.25;;;;;;;15.03;82.69;102367.56;4994350;28;20479;-66
2021/08/29 01:59:43;;;;;;;9.52;4.22;;;;;;;14.99;83.01;102360.50;4995638;28;20065;-67
2021/08/29 02:02:13;;;;;;;9.18;4.13;;;;;;;14.98;83.29;102364.09;4997145;28;20101;-69
2021/08/29 02:04:43;;;;;;;8.38;4.20;;;;;;;14.93;83.37;102364.25;4998260;28;20284;-69
2021/08/29 02:07:17;;;;;;;8.90;3.83;;;;;;;14.84;83.98;102367.16;4994256;28;20112;-69
2021/08/29 02:09:50;;;;;;;10.02;3.97;;;;;;;14.81;84.16;102377.09;4992495;28;20481;-69
2021/08/29 02:12:19;;;;;;;9.73;4.35;;;;;;;14.83;84.43;102375.25;4989702;28;20413;-68
2021/08/29 02:14:53;;;;;;;9.65;4.22;;;;;;;14.75;84.62;102379.03;4993388;28;20062;-69
2021/08/29 02:17:25;;;;;;;11.07;4.15;;;;;;;14.73;84.69;102369.25;4997012;28;20134;-69
2021/08/29 02:19:56;;;;;;;11.70;4.55;;;;;;;14.73;84.86;102364.75;4999651;28;20090;-69
2021/08/29 02:22:24;;;;;;;12.75;4.63;;;;;;;14.67;85.39;102372.97;4993634;28;20138;-69
2021/08/29 02:24:53;;;;;;;12.50;4.80;;;;;;;14.68;85.41;102373.88;4999918;28;20093;-69
2021/08/29 02:27:25;;;;;;;10.40;4.32;;;;;;;14.71;85.27;102371.97;4991874;28;20333;-69
2021/08/29 02:29:53;;;;;;;10.73;4.47;;;;;;;14.66;85.69;102370.31;4995752;28;20061;-70
2021/08/29 02:32:23;;;;;;;11.55;4.82;;;;;;;14.66;85.75;102362.25;4994567;28;20086;-68
2021/08/29 02:34:51;;;;;;;11.45;5.05;;;;;;;14.68;86.05;102364.00;4998844;28;20144;-69
2021/08/29 02:37:20;;;;;;;11.70;4.50;;;;;;;14.68;85.92;102377.44;4993440;28;20124;-69
2021/08/29 02:39:51;;;;;;;10.27;5.15;;;;;;;14.73;86.20;102372.81;4994289;28;20073;-69
2021/08/29 02:42:20;;;;;;;12.18;4.65;;;;;;;14.73;86.24;102366.56;4996436;28;20061;-68
2021/08/29 02:44:48;;;;;;;12.02;5.00;;;;;;;14.74;86.59;102368.31;4994456;28;20057;-68
2021/08/29 02:47:16;;;;;;;18.13;6.95;;;;;;;14.78;86.30;102366.44;4994063;28;20133;-68
2021/08/29 02:49:49;;;;;;;12.15;4.50;;;;;;;14.76;86.70;102366.47;4994174;28;20435;-69
2021/08/29 02:52:18;;;;;;;14.70;5.07;;;;;;;14.75;87.00;102370.09;4991804;28;20062;-68
2021/08/29 02:54:46;;;;;;;10.15;4.80;;;;;;;14.79;86.75;102363.72;4992505;28;20108;-68
2021/08/29 02:57:15;;;;;;;15.85;6.20;;;;;;;14.79;86.71;102363.72;4991672;28;20467;-68
2021/08/29 02:59:44;;;;;;;16.73;5.22;;;;;;;14.79;86.50;102360.16;4992122;28;20062;-66
2021/08/29 03:02:13;;;;;;;17.05;5.93;;;;;;;14.82;86.67;102349.31;4999313;28;20223;-66
2021/08/29 03:04:41;;;;;;;13.75;5.03;;;;;;;14.80;86.63;102362.78;4998485;28;20046;-66
2021/08/29 03:07:11;;;;;;;13.90;5.72;;;;;;;14.79;86.87;102358.34;4997163;28;20136;-66
2021/08/29 03:09:40;;;;;;;12.15;5.22;;;;;;;14.81;86.48;102347.56;4999099;28;20057;-65
2021/08/29 03:12:10;;;;;;;12.88;4.97;;;;;;;14.80;86.80;102346.69;4996735;28;20093;-66
2021/08/29 03:14:39;;;;;;;9.10;4.50;;;;;;;14.78;87.00;102351.22;4998873;28;20322;-66
2021/08/29 03:17:09;;;;;;;11.32;5.25;;;;;;;14.82;86.98;102344.81;4997752;28;20149;-66
2021/08/29 03:19:39;;;;;;;14.65;5.18;;;;;;;14.81;86.86;102353.78;4995596;28;20068;-66
2021/08/29 03:22:08;;;;;;;13.55;4.65;;;;;;;14.81;86.88;102342.19;5001213;28;20057;-66
2021/08/29 03:24:39;;;;;;;10.25;4.72;;;;;;;14.84;87.12;102348.34;4997922;28;20496;-66
2021/08/29 03:27:08;;;;;;;12.40;5.35;;;;;;;14.81;87.48;102344.88;5000007;28;20101;-65
2021/08/29 03:29:36;;;;;;;10.23;4.60;;;;;;;14.81;87.38;102342.19;4996637;28;20556;-66
2021/08/29 03:32:08;;;;;;;10.98;5.47;;;;;;;14.85;87.43;102342.06;4999617;28;20104;-67
2021/08/29 03:34:37;;;;;;;14.65;6.35;;;;;;;14.86;87.63;102338.44;4996894;28;20069;-66
2021/08/29 03:37:06;;;;;;;15.35;5.00;;;;;;;14.88;87.59;102335.72;4997140;28;20125;-65
2021/08/29 03:39:35;;;;;;;12.48;4.68;;;;;;;14.90;87.33;102337.44;4996701;28;20132;-66
2021/08/29 03:42:06;;;;;;;11.10;4.28;;;;;;;14.90;87.83;102339.25;4995600;28;20065;-66
2021/08/29 03:44:34;;;;;;;10.35;4.53;;;;;;;14.92;87.76;102337.41;5001059;28;20428;-66
2021/08/29 03:47:03;;;;;;;12.60;4.55;;;;;;;14.93;87.88;102336.47;4996596;28;20165;-65
2021/08/29 03:49:31;;;;;;;11.23;4.38;;;;;;;14.94;87.96;102332.88;4996918;28;20046;-65
2021/08/29 03:52:01;;;;;;;10.13;4.13;;;;;;;14.93;88.21;102323.03;4996528;28;20043;-65
2021/08/29 03:54:31;;;;;;;11.32;4.60;;;;;;;14.94;88.49;102324.81;4998534;28;20070;-69
2021/08/29 03:57:00;;;;;;;9.25;4.35;;;;;;;14.94;88.33;102320.31;4997247;28;20300;-68
2021/08/29 03:59:30;;;;;;;11.50;4.95;;;;;;;14.93;88.86;102326.63;4995925;28;20360;-68
2021/08/29 04:01:59;;;;;;;10.45;4.78;;;;;;;14.95;88.80;102323.91;4992711;28;20310;-68
2021/08/29 04:04:29;;;;;;;12.32;4.57;;;;;;;14.95;88.90;102323.91;4996516;28;20069;-68
2021/08/29 04:06:57;;;;;;;13.70;4.90;;;;;;;14.98;88.80;102317.53;5000850;28;20069;-68
2021/08/29 04:09:27;;;;;;;13.93;4.25;;;;;;;15.05;88.71;102309.28;4996771;28;20081;-68
2021/08/29 04:11:59;;;;;;;12.68;4.40;;;;;;;15.00;89.00;102316.59;4997703;28;20077;-68
2021/08/29 04:14:28;;;;;;;13.27;4.22;;;;;;;15.03;89.30;102310.22;4995394;28;20066;-69
2021/08/29 04:16:59;;;;;;;12.70;4.80;;;;;;;15.02;89.34;102319.25;4997303;28;20116;-69
2021/08/29 04:19:28;;;;;;;11.85;4.10;;;;;;;15.03;89.72;102312.94;5001760;28;20172;-69
2021/08/29 04:22:00;;;;;;;9.40;3.42;;;;;;;15.08;89.56;102308.31;4995302;28;20051;-68
2021/08/29 04:24:28;;;;;;;15.23;4.47;;;;;;;15.08;89.66;102305.63;4999709;28;20053;-68
2021/08/29 04:26:57;;;;;;;11.55;4.35;;;;;;;15.10;89.58;102307.34;4995644;28;20524;-68
2021/08/29 04:29:25;;;;;;;10.25;3.88;;;;;;;15.08;89.97;102308.31;4999877;28;20111;-69
2021/08/29 04:31:56;;;;;;;14.20;4.18;;;;;;;15.07;90.06;102301.19;4994717;28;20061;-70
2021/08/29 04:34:25;;;;;;;14.20;4.00;;;;;;;15.09;90.03;102304.69;4997836;28;20075;-68
2021/08/29 04:36:53;;;;;;;14.57;3.50;;;;;;;15.08;90.04;102298.41;4997801;28;20266;-69
2021/08/29 04:39:21;;;;;;;10.60;3.40;;;;;;;15.05;90.52;102301.22;4992253;28;20690;-68
2021/08/29 04:41:49;;;;;;;13.25;3.53;;;;;;;15.07;90.08;102307.44;5001352;28;20254;-68
2021/08/29 04:44:17;;;;;;;9.18;3.55;;;;;;;15.07;90.03;102298.50;4995780;28;20050;-69
2021/08/29 04:46:45;;;;;;;11.60;3.67;;;;;;;15.09;89.83;102302.88;4999703;28;20093;-69
2021/08/29 04:49:13;;;;;;;13.98;4.63;;;;;;;15.07;90.06;102314.63;4995198;28;20137;-68
2021/08/29 04:51:42;;;;;;;12.48;4.25;;;;;;;15.11;89.70;102310.91;5000556;28;20042;-68
2021/08/29 04:54:10;;;;;;;13.95;4.22;;;;;;;15.14;89.26;102321.59;4994929;28;20305;-68
2021/08/29 04:56:38;;;;;;;11.68;3.92;;;;;;;15.14;89.19;102321.59;4992677;28;20058;-68
2021/08/29 04:59:06;;;;;;;8.55;3.22;;;;;;;15.20;88.57;102315.16;4991047;28;20084;-68
2021/08/29 05:01:35;;;;;;;12.70;3.85;;;;;;;15.22;87.61;102313.28;4993598;28;20093;-68
2021/08/29 05:04:03;;;;;;;10.05;3.92;;;;;;;15.22;87.29;102310.59;4995167;28;20046;-69
2021/08/29 05:06:31;;;;;;;14.90;5.15;;;;;;;15.22;87.31;102314.19;4993343;28;20471;-68
2021/08/29 05:09:00;;;;;;;12.13;4.18;;;;;;;15.24;87.53;102319.53;4997223;28;20066;-68
2021/08/29 05:11:31;;;;;;;9.52;4.10;;;;;;;15.24;87.01;102308.78;4994141;28;20132;-69
2021/08/29 05:14:00;;;;;;;7.85;3.80;;;;;;;15.26;87.01;102313.16;4994211;28;20050;-70
2021/08/29 05:16:28;;;;;;;7.38;3.33;;;;;;;15.25;86.84;102306.00;4990616;28;20853;-68
2021/08/29 05:18:56;;;;;;;10.40;3.58;;;;;;;15.26;86.75;102313.16;4994972;28;20062;-69
2021/08/29 05:21:24;;;;;;;11.70;3.05;;;;;;;15.25;86.90;102313.22;4999031;28;20107;-68
2021/08/29 05:23:52;;;;;;;8.52;3.22;;;;;;;15.29;86.58;102312.22;4993352;28;20066;-68
2021/08/29 05:26:21;;;;;;;12.23;3.60;;;;;;;15.31;86.82;102311.22;4996000;28;20112;-68
2021/08/29 05:28:49;;;;;;;12.20;3.70;;;;;;;15.34;86.71;102309.38;4993799;28;20141;-69
2021/08/29 05:31:17;;;;;;;11.23;3.30;;;;;;;15.38;86.69;102316.44;4994516;28;20073;-69
2021/08/29 05:33:45;;;;;;;10.63;3.35;;;;;;;15.41;86.79;102319.03;4993380;28;20064;-68
2021/08/29 05:36:13;;;;;;;11.02;4.03;;;;;;;15.40;87.02;102312.75;4994612;28;20038;-68
2021/08/29 05:38:41;;;;;;;8.80;3.60;;;;;;;15.44;87.13;102319.84;4995147;28;20066;-68
2021/08/29 05:41:09;;;;;;;10.15;3.50;;;;;;;15.48;87.08;102317.94;4993720;28;20472;-69
2021/08/29 05:43:39;;;;;;;10.50;4.43;;;;;;;15.50;86.63;102316.09;4992272;28;20076;-69
2021/08/29 05:46:10;;;;;;;10.00;3.47;;;;;;;15.49;86.37;102322.38;4993453;28;20517;-69
2021/08/29 05:48:38;;;;;;;9.32;3.45;;;;;;;15.52;85.96;102319.59;4995207;28;20068;-69
2021/08/29 05:51:06;;;;;;;15.23;3.72;;;;;;;15.54;85.87;102323.13;4993133;28;20478;-68
2021/08/29 05:53:38;;;;;;;10.20;3.20;;;;;;;15.55;85.79;102319.50;4995647;28;20053;-68
2021/08/29 05:56:06;;;;;;;12.93;4.10;;;;;;;15.60;85.20;102319.38;4997320;28;20069;-69
2021/08/29 05:58:34;;;;;;;10.00;3.53;;;;;;;15.55;85.76;102319.50;4994647;28;20062;-69
2021/08/29 06:01:04;;;;;;;9.70;3.45;;;;;;;15.56;85.01;102325.78;4997162;28;20164;-69
2021/08/29 06:03:37;;;;;;;10.73;3.55;;;;;;;15.63;84.92;102320.19;4993764;28;20161;-69
2021/08/29 06:06:05;;;;;;;;;;;;;;;15.63;84.23;102317.47;4997726;28;20068;-68
2021/08/29 06:08:34;;;;;;;10.55;3.33;;;;;;;15.63;84.51;102311.19;4992340;28;20059;-68
2021/08/29 06:11:03;;;;;;;10.10;3.42;;;;;;;15.64;84.48;102318.34;4996769;28;20046;-68
2021/08/29 06:13:32;;;;;;;10.77;3.53;;;;;;;15.62;84.26;102321.09;4994821;28;20471;-69
2021/08/29 06:16:04;;;;;;;13.98;3.65;;;;;;;15.64;84.09;102319.22;4994743;28;20058;-68
2021/08/29 06:18:33;;;;;;;13.00;4.20;;;;;;;15.64;84.14;102318.34;4993717;28;20066;-69
2021/08/29 06:21:01;;;;;;;10.65;3.72;;;;;;;15.73;83.56;102320.75;4992916;28;20050;-69
2021/08/29 06:23:29;;;;;;;9.35;3.22;;;;;;;15.69;83.92;102314.59;4995855;28;20153;-69
2021/08/29 06:25:57;;;;;;;10.43;3.72;;;;;;;15.72;83.51;102327.09;4992776;28;20293;-69
2021/08/29 06:28:25;;;;;;;14.27;3.53;;;;;;;15.73;83.41;102319.88;4993016;28;20058;-68
2021/08/29 06:30:53;;;;;;;8.80;3.00;;;;;;;15.74;83.13;102319.84;4995439;28;20491;-69
2021/08/29 06:33:23;;;;;;;10.82;3.33;;;;;;;15.75;83.31;102312.63;4994435;28;20062;-68
2021/08/29 06:35:51;;;;;;;17.08;5.38;;;;;;;15.78;83.45;102304.50;4992740;28;20066;-68
2021/08/29 06:38:19;;;;;;;14.95;3.85;;;;;;;15.79;83.44;102309.84;4997349;28;20120;-69
2021/08/29 06:40:48;;;;;;;8.70;3.40;;;;;;;15.82;83.05;102311.59;4997376;28;20104;-69
2021/08/29 06:43:16;;;;;;;10.77;3.75;;;;;;;15.87;83.04;102309.63;4995200;28;20366;-70
2021/08/29 06:45:44;;;;;;;10.55;3.72;;;;;;;15.91;83.03;102305.03;4998664;28;20275;-69
2021/08/29 06:48:12;;;;;;;11.68;3.65;;;;;;;15.87;83.26;102304.25;4999975;28;20531;-69
2021/08/29 06:50:42;;;;;;;11.27;3.78;;;;;;;15.96;83.24;102312.03;4996545;28;20046;-68
2021/08/29 06:53:09;;;;;;;10.25;4.07;;;;;;;15.91;82.78;102311.28;4999760;28;20046;-68
2021/08/29 06:55:37;;;;;;;12.95;4.13;;;;;;;15.95;83.23;102307.56;4998110;28;20049;-68
2021/08/29 06:58:06;;;;;;;11.50;3.45;;;;;;;15.99;83.21;102308.38;4997901;28;20063;-68
2021/08/29 07:00:34;;;;;;;9.00;3.08;;;;;;;15.97;83.21;102308.41;4998210;28;20326;-68
2021/08/29 07:03:02;;;;;;;12.65;3.83;;;;;;;16.12;82.87;102309.72;4996207;28;20069;-68
2021/08/29 07:05:30;;;;;;;12.35;3.33;;;;;;;16.07;81.91;102308.97;4997791;28;20046;-68
2021/08/29 07:08:00;;;;;;;9.88;3.30;;;;;;;16.13;82.53;102310.63;4995831;28;20084;-66
2021/08/29 07:10:28;;;;;;;14.75;3.90;;;;;;;16.19;82.36;102314.00;4995986;28;20047;-66
2021/08/29 07:12:56;;;;;;;10.70;3.40;;;;;;;16.16;81.90;102303.31;4998621;28;20476;-66
2021/08/29 07:15:23;;;;;;;12.70;3.15;;;;;;;16.12;81.97;102304.31;4999369;28;20338;-65
2021/08/29 07:17:52;;;;;;;10.20;3.40;;;;;;;16.02;81.98;102303.75;4997512;28;20480;-65
2021/08/29 07:20:20;;;;;;;10.52;3.65;;;;;;;16.00;81.63;102302.03;4997416;28;20386;-67
2021/08/29 07:22:49;;;;;;;12.98;3.53;;;;;;;15.98;82.33;102294.00;4999634;28;20066;-67
2021/08/29 07:25:18;;;;;;;9.75;3.25;;;;;;;16.01;82.27;102298.44;4996280;28;20062;-66
2021/08/29 07:27:46;;;;;;;13.02;3.45;;;;;;;16.08;82.02;102308.06;4998667;28;20082;-65
2021/08/29 07:30:14;;;;;;;13.07;3.30;;;;;;;16.20;81.94;102309.47;4995516;28;20518;-66
2021/08/29 07:32:43;;;;;;;13.63;4.35;;;;;;;16.25;81.61;102303.00;4996408;28;20054;-66
2021/08/29 07:35:11;;;;;;;12.30;3.30;;;;;;;16.27;81.89;102308.34;4996449;28;20145;-68
2021/08/29 07:37:42;;;;;;;10.05;3.28;;;;;;;16.34;81.40;102311.72;4995956;28;20408;-67
2021/08/29 07:40:12;;;;;;;10.20;3.50;;;;;;;16.38;81.26;102310.72;4998590;28;20058;-68
2021/08/29 07:42:42;;;;;;;8.13;3.05;;;;;;;16.53;80.63;102290.44;4996680;28;20089;-66
2021/08/29 07:45:11;;;;;;;13.20;3.35;;;;;;;16.50;80.44;102298.59;4997610;28;20154;-67
2021/08/29 07:47:39;;;;;;;9.20;3.35;;;;;;;16.53;80.70;102294.03;4993550;28;20069;-67
2021/08/29 07:50:07;;;;;;;13.77;3.63;;;;;;;16.56;80.88;102293.03;4999674;28;20319;-66
2021/08/29 07:52:35;;;;;;;8.35;3.35;;;;;;;16.56;81.01;102298.41;4997338;28;20544;-69
2021/08/29 07:55:04;;;;;;;11.05;3.78;;;;;;;16.52;81.34;102294.06;4999349;28;20093;-69
2021/08/29 07:57:33;;;;;;;14.27;3.83;;;;;;;16.56;81.34;102298.41;4998645;28;20068;-69
2021/08/29 08:00:03;;;;;;;12.10;3.38;;;;;;;16.57;82.05;102292.09;4994867;28;20127;-69
2021/08/29 08:02:31;;;;;;;10.07;3.53;;;;;;;16.61;81.48;102293.75;4995182;28;20322;-69
2021/08/29 08:05:00;;;;;;;12.07;4.20;;;;;;;16.63;81.43;102291.88;4996263;28;20251;-70
2021/08/29 08:07:27;;;;;;;10.82;3.13;;;;;;;16.68;81.69;102292.59;4995284;28;20444;-69
2021/08/29 08:09:55;;;;;;;18.75;4.32;;;;;;;16.66;81.26;102289.06;4994876;28;20729;-69
2021/08/29 08:12:23;;;;;;;11.15;3.97;;;;;;;16.73;81.53;102293.31;4995198;28;20157;-68
2021/08/29 08:14:52;;;;;;;10.38;3.38;;;;;;;16.71;81.61;102295.19;4995352;28;20108;-69
2021/08/29 08:17:24;;;;;;;13.73;3.65;;;;;;;16.71;81.21;102292.50;5000940;28;20054;-69
2021/08/29 08:19:53;;;;;;;11.38;3.58;;;;;;;16.67;81.69;102295.34;4998222;28;20077;-69
2021/08/29 08:22:23;;;;;;;11.38;3.35;;;;;;;16.61;82.37;102297.31;4993494;28;20050;-69
2021/08/29 08:24:51;;;;;;;16.05;3.88;;;;;;;16.50;82.68;102294.13;4996960;28;20082;-69
2021/08/29 08:27:19;;;;;;;14.30;4.30;;;;;;;16.52;82.30;102297.63;4992260;28;20081;-70
2021/08/29 08:29:47;;;;;;;13.93;3.90;;;;;;;16.62;82.26;102288.31;4994999;28;20195;-70
2021/08/29 08:32:15;;;;;;;11.73;3.65;;;;;;;16.66;82.10;102283.69;4994391;28;20046;-68
2021/08/29 08:34:46;;;;;;;10.13;3.13;;;;;;;16.76;82.31;102295.91;4996791;28;20384;-69
2021/08/29 08:37:14;;;;;;;10.27;3.08;;;;;;;16.73;81.53;102297.84;4991478;28;20177;-68
2021/08/29 08:39:42;;;;;;;11.73;3.35;;;;;;;16.66;81.46;102291.78;4999161;28;20058;-69
2021/08/29 08:42:10;;;;;;;12.32;4.07;;;;;;;16.75;81.65;102290.56;4997552;28;20085;-69
2021/08/29 08:44:40;;;;;;;9.18;2.97;;;;;;;16.72;80.89;102286.19;4994780;28;20531;-70
2021/08/29 08:47:09;;;;;;;10.98;3.05;;;;;;;16.76;81.00;102295.03;4996007;28;20069;-69
2021/08/29 08:49:40;;;;;;;7.75;3.10;;;;;;;16.78;81.06;102301.25;4993480;28;20531;-69
2021/08/29 08:52:17;;;;;;;11.90;3.33;;;;;;;16.79;81.56;102300.31;4996754;28;22675;-68
2021/08/29 08:54:47;;;;;;;12.10;3.72;;;;;;;16.72;81.54;102298.75;4994009;28;20104;-68
2021/08/29 08:57:18;;;;;;;12.35;3.25;;;;;;;16.73;81.84;102289.75;4995845;28;20120;-68
2021/08/29 08:59:49;;;;;;;9.45;3.05;;;;;;;16.77;81.63;102303.06;4991081;28;20065;-69
2021/08/29 09:02:21;;;;;;;15.00;3.20;;;;;;;16.80;81.27;102291.28;4994733;28;20833;-68
2021/08/29 09:04:51;;;;;;;9.95;3.65;;;;;;;16.85;81.22;102301.94;4994855;28;20067;-69
2021/08/29 09:07:21;;;;;;;10.20;3.50;;;;;;;16.78;80.65;102302.13;4995409;28;20492;-69
2021/08/29 09:09:49;;;;;;;13.75;3.55;;;;;;;16.78;81.10;102290.47;4996196;28;20053;-69
2021/08/29 09:12:18;;;;;;;14.25;3.80;;;;;;;16.78;81.34;102301.25;4993049;28;20413;-69
2021/08/29 09:14:48;;;;;;;11.27;3.25;;;;;;;16.82;81.82;102300.19;4992777;28;20058;-68
2021/08/29 09:17:28;;;;;;;13.75;3.47;;;;;;;16.61;82.31;102300.00;4993002;28;20066;-69
2021/08/29 09:20:15;;;;;;;16.42;5.45;;;;;;;16.63;82.50;102299.97;4991784;28;20062;-70
2021/08/29 09:22:49;;;;;;;11.65;3.35;;;;;;;16.68;82.20;102292.59;4994162;28;20189;-69
2021/08/29 09:25:21;;;;;;;10.82;2.92;;;;;;;16.74;82.26;102297.78;4995486;28;20092;-70
2021/08/29 09:27:52;;;;;;;13.30;3.28;;;;;;;16.74;81.88;102297.78;4996308;28;20646;-69
2021/08/29 09:30:21;;;;;;;11.07;3.97;;;;;;;16.68;82.33;102300.69;4992578;28;20069;-69
2021/08/29 09:32:53;;;;;;;14.45;4.45;;;;;;;16.76;82.68;102295.91;4988776;28;20473;-69
2021/08/29 09:35:23;;;;;;;13.43;3.90;;;;;;;16.70;82.59;102295.25;4993560;28;20069;-70
2021/08/29 09:37:52;;;;;;;10.10;3.63;;;;;;;16.73;82.61;102296.00;4989784;28;20057;-68
2021/08/29 09:40:23;;;;;;;13.85;4.28;;;;;;;16.69;82.56;102291.66;4992834;28;20507;-69
2021/08/29 09:42:53;;;;;;;12.77;4.03;;;;;;;16.71;81.75;102297.00;4992819;28;20061;-68
2021/08/29 09:45:24;;;;;;;14.32;3.90;;;;;;;16.77;82.11;102294.09;4993166;28;20132;-69
2021/08/29 09:47:53;;;;;;;12.02;3.65;;;;;;;16.76;81.49;102295.91;4994040;28;20401;-69
2021/08/29 09:50:23;;;;;;;13.18;3.85;;;;;;;16.70;81.18;102298.84;4996935;28;20491;-69
2021/08/29 09:53:01;;;;;;;7.53;3.25;;;;;;;16.80;79.86;102296.69;4996377;28;20069;-69
2021/08/29 09:55:32;;;;;;;10.15;3.28;;;;;;;16.90;79.19;102297.28;4992028;28;20176;-69
2021/08/29 09:58:01;;;;;;;12.00;3.90;;;;;;;16.86;78.83;102290.25;4994838;28;20054;-68
2021/08/29 10:00:29;;;;;;;13.15;3.17;;;;;;;16.66;78.30;102288.22;4993202;28;20093;-68
2021/08/29 10:03:07;;;;;;;12.07;4.25;;;;;;;16.67;78.24;102293.53;4992363;28;20407;-68
2021/08/29 10:05:35;;;;;;;10.88;3.97;;;;;;;16.59;78.33;102291.09;4992625;28;20062;-69
2021/08/29 10:08:08;;;;;;;17.02;4.10;;;;;;;16.69;78.38;102294.38;4993272;28;20075;-69
2021/08/29 10:10:38;;;;;;;11.47;3.40;;;;;;;16.75;77.90;102288.78;4995320;28;20061;-70
2021/08/29 10:13:07;;;;;;;11.73;3.22;;;;;;;16.65;79.07;102289.13;4998639;28;20077;-68
2021/08/29 10:15:36;;;;;;;14.20;4.32;;;;;;;16.69;79.34;102286.28;4998118;28;21003;-69
2021/08/29 10:18:04;;;;;;;14.40;3.97;;;;;;;16.73;78.93;102279.84;4998698;28;20100;-69
2021/08/29 10:20:37;;;;;;;13.75;3.67;;;;;;;16.73;79.05;102269.06;5003014;28;20062;-68
2021/08/29 10:23:07;;;;;;;10.43;3.70;;;;;;;16.92;78.49;102268.44;4997872;28;20069;-68
2021/08/29 10:25:38;;;;;;;15.38;4.28;;;;;;;17.05;78.30;102274.28;5000981;28;20337;-68
2021/08/29 10:28:13;;;;;;;13.82;3.60;;;;;;;17.18;78.01;102262.09;4999435;28;20065;-68
2021/08/29 10:30:43;;;;;;;13.98;3.70;;;;;;;17.06;78.77;102271.53;5000647;28;20073;-68
2021/08/29 10:33:15;;;;;;;15.80;4.05;;;;;;;16.99;79.54;102272.66;4998780;28;20124;-68
2021/08/29 10:35:45;;;;;;;10.45;3.38;;;;;;;17.21;79.15;102264.66;4998625;28;20500;-68
2021/08/29 10:38:15;;;;;;;14.27;3.80;;;;;;;16.99;79.24;102260.09;4999611;28;20097;-68
2021/08/29 10:40:46;;;;;;;11.18;3.67;;;;;;;17.06;78.66;102265.22;4999084;28;20066;-68
2021/08/29 10:43:15;;;;;;;14.00;3.95;;;;;;;16.83;79.51;102266.91;4998043;28;20046;-69
2021/08/29 10:45:43;;;;;;;13.50;3.88;;;;;;;16.81;80.47;102269.66;5000985;28;20061;-69
2021/08/29 10:48:15;;;;;;;15.18;3.63;;;;;;;16.75;80.51;102266.31;4993227;28;20064;-68
2021/08/29 10:50:47;;;;;;;12.93;3.33;;;;;;;16.74;80.70;102265.44;4998454;28;20069;-68
2021/08/29 10:53:29;;;;;;;11.07;3.50;;;;;;;16.65;80.95;102256.78;4996973;28;20144;-68
2021/08/29 10:56:35;;;;;;;12.50;3.58;;;;;;;16.62;81.67;102255.97;4999781;28;20053;-68
2021/08/29 10:59:24;;;;;;;14.70;3.75;;;;;;;16.67;81.84;102263.00;4996998;28;20065;-68
2021/08/29 11:01:55;;;;;;;11.60;3.92;;;;;;;16.59;82.16;102244.41;4999792;28;20502;-69
2021/08/29 11:04:52;;;;;;;13.75;3.53;;;;;;;16.63;82.26;102243.38;4999249;28;20069;-68
2021/08/29 11:07:40;;;;;;;13.00;3.88;;;;;;;16.59;82.78;102256.06;4998711;28;20523;-68
2021/08/29 11:10:11;;;;;;;9.95;3.45;;;;;;;16.66;82.77;102256.75;5000309;28;20100;-68
2021/08/29 11:12:41;;;;;;;15.07;4.13;;;;;;;16.52;83.47;102256.34;4998178;28;20074;-69
2021/08/29 11:15:14;;;;;;;12.00;4.00;;;;;;;16.54;84.20;102260.75;4999998;28;20076;-69
2021/08/29 11:17:58;;;;;;;13.45;3.60;;;;;;;16.46;84.48;102251.16;4998587;28;20137;-69
2021/08/29 11:20:26;;;;;;;9.18;3.95;;;;;;;16.15;87.57;102255.75;5000853;28;20096;-68
2021/08/29 11:22:54;;;;;;;14.20;3.60;;;;;;;15.94;89.99;102267.25;4997294;28;20058;-70
2021/08/29 11:25:28;;;;;;;11.57;4.05;;;;;;;15.84;91.21;102258.59;4998277;28;20058;-69
2021/08/29 11:28:02;;;;;;;12.30;4.60;;;;;;;15.86;90.91;102264.78;4997662;28;20069;-69
2021/08/29 11:30:47;;;;;;;11.98;3.95;;;;;;;15.95;90.61;102258.22;4998324;28;20058;-66
2021/08/29 11:33:24;;;;;;;12.10;4.30;;;;;;;16.03;90.31;102257.03;4999623;28;20157;-68